Time;durP1;ratioP1;P1;durP2;ratioP2;P2;SDS_P1;SDS_P2;PMS_P1;PMS_P2;Temp;Humidity;BMP_temperature;BMP_pressure;BME280_temperature;BME280_humidity;BME280_pressure;Samples;Min_cycle;Max_cycle;Signal;HPM_P1;HPM_P2
2024/03/14 00:01:06;;;;;;;10.95;5.72;;;;;;;;;;5031182;28;20049;-68
2024/03/14 00:03:32;;;;;;;13.07;5.43;;;;;;;;;;5013739;28;20040;-68
2024/03/14 00:05:57;;;;;;;10.18;5.45;;;;;;;;;;5031421;28;20026;-68
2024/03/14 00:08:23;;;;;;;12.73;5.97;;;;;;;;;;5031303;28;20126;-68
2024/03/14 00:10:50;;;;;;;8.90;5.30;;;;;;;;;;5013422;28;20030;-67
2024/03/14 00:13:16;;;;;;;13.52;5.60;;;;;;;;;;5031416;28;20037;-67
2024/03/14 00:15:43;;;;;;;13.43;5.32;;;;;;;;;;5031365;28;20376;-69
2024/03/14 00:18:09;;;;;;;9.60;5.30;;;;;;;;;;5029916;28;20068;-69
2024/03/14 00:20:37;;;;;;;11.82;5.63;;;;;;;;;;5029842;28;20041;-68
2024/03/14 00:23:05;;;;;;;14.13;5.47;;;;;;;;;;5030142;28;20037;-70
2024/03/14 00:25:31;;;;;;;12.05;5.38;;;;;;;;;;5031159;28;20407;-67
2024/03/14 00:27:58;;;;;;;9.57;5.68;;;;;;;;;;5030996;28;20060;-68
2024/03/14 00:30:27;;;;;;;9.82;4.88;;;;;;;;;;5029959;28;20099;-67
2024/03/14 00:32:53;;;;;;;10.98;5.80;;;;;;;;;;5030985;28;20499;-67
2024/03/14 00:35:19;;;;;;;11.77;5.40;;;;;;;;;;5031228;28;20049;-68
2024/03/14 00:37:46;;;;;;;9.35;5.63;;;;;;;;;;5030994;28;20033;-67
2024/03/14 00:40:11;;;;;;;10.32;5.72;;;;;;;;;;5029771;28;20072;-68
2024/03/14 00:42:46;;;;;;;13.90;6.30;;;;;;;;;;5029874;28;20033;-68
2024/03/14 00:45:14;;;;;;;10.00;5.25;;;;;;;;;;5033210;28;20131;-68
2024/03/14 00:47:40;;;;;;;11.80;6.35;;;;;;;;;;5037449;28;20048;-68
2024/03/14 00:50:08;;;;;;;15.00;6.68;;;;;;;;;;5037919;28;20307;-68
2024/03/14 00:52:35;;;;;;;10.50;6.43;;;;;;;;;;5037447;28;20033;-68
2024/03/14 00:55:00;;;;;;;13.75;7.10;;;;;;;;;;5036407;28;20037;-68
2024/03/14 00:57:26;;;;;;;16.58;6.28;;;;;;;;;;5035946;28;20040;-69
2024/03/14 00:59:53;;;;;;;11.57;6.07;;;;;;;;;;5037632;28;20049;-68
2024/03/14 01:02:19;;;;;;;13.35;6.80;;;;;;;;;;5037143;28;20096;-69
2024/03/14 01:04:45;;;;;;;16.50;7.00;;;;;;;;;;5036096;28;20111;-68
2024/03/14 01:07:11;;;;;;;13.68;7.57;;;;;;;;;;5035956;28;20261;-69
2024/03/14 01:09:39;;;;;;;13.50;6.78;;;;;;;;;;5037506;28;20045;-68
2024/03/14 01:12:04;;;;;;;12.63;6.93;;;;;;;;;;5037413;28;20044;-68
2024/03/14 01:14:30;;;;;;;14.30;7.07;;;;;;;;;;5037160;28;20091;-69
2024/03/14 01:16:55;;;;;;;13.52;6.57;;;;;;;;;;5037061;28;20037;-69
2024/03/14 01:19:21;;;;;;;10.70;6.47;;;;;;;;;;5037375;28;20076;-68
2024/03/14 01:21:47;;;;;;;12.77;6.50;;;;;;;;;;5035756;28;20049;-68
2024/03/14 01:24:13;;;;;;;13.77;6.72;;;;;;;;;;5037508;28;20038;-68
2024/03/14 01:26:40;;;;;;;15.45;6.80;;;;;;;;;;5037245;28;20075;-69
2024/03/14 01:29:06;;;;;;;11.52;6.38;;;;;;;;;;5036081;28;20487;-69
2024/03/14 01:31:33;;;;;;;20.90;6.15;;;;;;;;;;5037394;28;20438;-68
2024/03/14 01:34:01;;;;;;;16.33;6.90;;;;;;;;;;5035896;28;20037;-68
2024/03/14 01:36:27;;;;;;;12.18;6.18;;;;;;;;;;5037355;28;20037;-67
2024/03/14 01:38:53;;;;;;;11.63;5.65;;;;;;;;;;5035606;28;20572;-68
2024/03/14 01:41:19;;;;;;;14.40;6.68;;;;;;;;;;5036124;28;20128;-69
2024/03/14 01:43:56;;;;;;;13.00;6.40;;;;;;;;;;5037205;28;20044;-68
2024/03/14 01:46:23;;;;;;;13.93;6.70;;;;;;;;;;5036115;28;20049;-68
2024/03/14 01:48:49;;;;;;;13.68;6.82;;;;;;;;;;5037213;28;20044;-69
2024/03/14 01:51:14;;;;;;;14.63;6.47;;;;;;;;;;5037630;28;20041;-67
2024/03/14 01:53:40;;;;;;;20.65;6.25;;;;;;;;;;5037027;28;20147;-68
2024/03/14 01:56:06;;;;;;;15.23;6.53;;;;;;;;;;5035248;28;20042;-68
2024/03/14 01:58:33;;;;;;;14.57;6.00;;;;;;;;;;5032612;28;20530;-67
2024/03/14 02:01:00;;;;;;;14.30;5.80;;;;;;;;;;5016593;28;20052;-68
2024/03/14 02:03:26;;;;;;;12.05;6.25;;;;;;;;;;5032795;28;20029;-67
2024/03/14 02:06:00;;;;;;;14.95;5.93;;;;;;;;;;5033122;28;20521;-68
2024/03/14 02:08:26;;;;;;;13.73;7.18;;;;;;;;;;5015926;28;20483;-68
2024/03/14 02:10:52;;;;;;;12.82;6.18;;;;;;;;;;5033848;28;20055;-67
2024/03/14 02:13:18;;;;;;;9.95;5.63;;;;;;;;;;5033833;28;20117;-67
2024/03/14 02:15:44;;;;;;;16.20;6.45;;;;;;;;;;5034099;28;20112;-68
2024/03/14 02:18:09;;;;;;;13.55;6.47;;;;;;;;;;5016051;28;20075;-67
2024/03/14 02:20:37;;;;;;;14.25;6.63;;;;;;;;;;5033654;28;20072;-70
2024/03/14 02:23:03;;;;;;;11.50;6.28;;;;;;;;;;5032357;28;20052;-68
2024/03/14 02:25:28;;;;;;;14.05;6.70;;;;;;;;;;5033510;28;20491;-67
2024/03/14 02:27:54;;;;;;;14.85;6.85;;;;;;;;;;5033683;28;20041;-67
2024/03/14 02:30:19;;;;;;;14.27;7.25;;;;;;;;;;5031963;28;20033;-68
2024/03/14 02:32:45;;;;;;;16.38;6.47;;;;;;;;;;5033748;28;20034;-69
2024/03/14 02:35:10;;;;;;;13.85;6.65;;;;;;;;;;5032198;28;20037;-67
2024/03/14 02:37:36;;;;;;;17.25;6.55;;;;;;;;;;5032186;28;20065;-68
2024/03/14 02:40:05;;;;;;;13.15;6.65;;;;;;;;;;5032007;28;20103;-67
2024/03/14 02:42:31;;;;;;;10.77;5.80;;;;;;;;;;5032040;28;20068;-68
2024/03/14 02:45:00;;;;;;;11.70;6.57;;;;;;;;;;5015541;28;20041;-67
2024/03/14 02:47:26;;;;;;;13.30;6.38;;;;;;;;;;5033475;28;20033;-68
2024/03/14 02:49:51;;;;;;;13.52;6.43;;;;;;;;;;5031777;28;20098;-67
2024/03/14 02:52:17;;;;;;;14.90;7.18;;;;;;;;;;5033471;28;20088;-67
2024/03/14 02:54:42;;;;;;;13.68;5.97;;;;;;;;;;5031688;28;20084;-68
2024/03/14 02:57:08;;;;;;;13.73;6.45;;;;;;;;;;5031820;28;20025;-69
2024/03/14 02:59:33;;;;;;;10.73;5.72;;;;;;;;;;5032875;28;20080;-68
2024/03/14 03:02:00;;;;;;;12.93;6.75;;;;;;;;;;5015056;28;20038;-67
2024/03/14 03:04:30;;;;;;;12.18;6.30;;;;;;;;;;5031571;28;20038;-68
2024/03/14 03:06:58;;;;;;;14.93;7.60;;;;;;;;;;5031474;28;20096;-68
2024/03/14 03:09:25;;;;;;;16.17;6.80;;;;;;;;;;5032949;28;20288;-68
2024/03/14 03:11:52;;;;;;;14.48;7.55;;;;;;;;;;5031340;28;20033;-68
2024/03/14 03:14:18;;;;;;;15.02;7.40;;;;;;;;;;5032908;28;20116;-67
2024/03/14 03:16:44;;;;;;;16.98;8.10;;;;;;;;;;5032739;28;20120;-70
2024/03/14 03:19:10;;;;;;;15.75;8.25;;;;;;;;;;5031404;28;20056;-67
2024/03/14 03:21:38;;;;;;;15.45;7.63;;;;;;;;;;5032568;28;20470;-68
2024/03/14 03:24:07;;;;;;;16.15;7.70;;;;;;;;;;5031221;28;20107;-66
2024/03/14 03:26:33;;;;;;;17.75;7.88;;;;;;;;;;5031289;28;20129;-69
2024/03/14 03:28:59;;;;;;;15.43;9.38;;;;;;;;;;5031073;28;20453;-68
2024/03/14 03:31:25;;;;;;;17.52;9.35;;;;;;;;;;5032338;28;20034;-68
2024/03/14 03:33:51;;;;;;;16.70;8.77;;;;;;;;;;5032591;28;20466;-68
2024/03/14 03:36:16;;;;;;;15.23;8.02;;;;;;;;;;5032221;28;20108;-67
2024/03/14 03:38:43;;;;;;;19.00;9.23;;;;;;;;;;5032372;28;20103;-67
2024/03/14 03:41:09;;;;;;;16.02;7.85;;;;;;;;;;5030958;28;20123;-68
2024/03/14 03:43:35;;;;;;;15.98;8.35;;;;;;;;;;5032353;28;20125;-68
2024/03/14 03:46:01;;;;;;;16.52;8.05;;;;;;;;;;5032217;28;20065;-68
2024/03/14 03:48:26;;;;;;;16.80;8.57;;;;;;;;;;5030824;28;20376;-68
2024/03/14 03:50:52;;;;;;;16.08;8.88;;;;;;;;;;5032237;28;20037;-68
2024/03/14 03:53:21;;;;;;;18.33;8.35;;;;;;;;;;5030362;28;20095;-68
2024/03/14 03:55:47;;;;;;;16.02;8.48;;;;;;;;;;5031015;28;20059;-68
2024/03/14 03:58:13;;;;;;;16.33;8.60;;;;;;;;;;5031807;28;20076;-68
2024/03/14 04:00:43;;;;;;;18.55;7.95;;;;;;;;;;5030729;28;20037;-69
2024/03/14 04:03:14;;;;;;;14.15;8.50;;;;;;;;;;5031734;28;20061;-67
2024/03/14 04:05:42;;;;;;;18.08;8.60;;;;;;;;;;5032058;28;20034;-68
2024/03/14 04:08:08;;;;;;;18.73;9.38;;;;;;;;;;5013898;28;20033;-68
2024/03/14 04:10:34;;;;;;;17.00;8.55;;;;;;;;;;5030149;28;20120;-68
2024/03/14 04:13:03;;;;;;;22.10;8.88;;;;;;;;;;5031385;28;20056;-69
2024/03/14 04:15:30;;;;;;;15.18;8.88;;;;;;;;;;5030700;28;20120;-68
2024/03/14 04:17:57;;;;;;;18.77;8.32;;;;;;;;;;5030420;28;20075;-68
2024/03/14 04:20:26;;;;;;;16.17;8.57;;;;;;;;;;5031247;28;20037;-68
2024/03/14 04:22:55;;;;;;;16.73;8.50;;;;;;;;;;5031305;28;20051;-68
2024/03/14 04:25:20;;;;;;;21.33;9.52;;;;;;;;;;5028677;28;20116;-68
2024/03/14 04:27:47;;;;;;;18.75;8.25;;;;;;;;;;5028145;28;20138;-67
2024/03/14 04:30:15;;;;;;;18.45;9.00;;;;;;;;;;5031096;28;20427;-68
2024/03/14 04:32:43;;;;;;;17.77;9.13;;;;;;;;;;5031059;28;20044;-69
2024/03/14 04:35:10;;;;;;;16.55;8.77;;;;;;;;;;5013588;28;20109;-68
2024/03/14 04:37:37;;;;;;;19.25;9.68;;;;;;;;;;5031258;28;20033;-68
2024/03/14 04:40:10;;;;;;;18.83;8.95;;;;;;;;;;5029034;28;20152;-68
2024/03/14 04:42:36;;;;;;;16.60;9.00;;;;;;;;;;5031189;28;20389;-68
2024/03/14 04:45:02;;;;;;;20.83;9.55;;;;;;;;;;5029868;28;20087;-68
2024/03/14 04:47:29;;;;;;;15.95;9.63;;;;;;;;;;5029728;28;20033;-68
2024/03/14 04:49:54;;;;;;;18.42;9.50;;;;;;;;;;5031248;28;20045;-67
2024/03/14 04:52:20;;;;;;;19.35;9.18;;;;;;;;;;5030175;28;20069;-73
2024/03/14 04:54:47;;;;;;;16.05;8.85;;;;;;;;;;5029648;28;20088;-69
2024/03/14 04:57:12;;;;;;;17.17;9.23;;;;;;;;;;5029266;28;20034;-70
2024/03/14 04:59:40;;;;;;;21.80;9.15;;;;;;;;;;5030682;28;20045;-64
2024/03/14 05:02:07;;;;;;;19.00;9.30;;;;;;;;;;5030967;28;20056;-68
2024/03/14 05:04:33;;;;;;;18.85;9.57;;;;;;;;;;5029552;28;20033;-66
2024/03/14 05:06:58;;;;;;;21.45;9.65;;;;;;;;;;5031172;28;20036;-70
2024/03/14 05:09:24;;;;;;;18.02;10.23;;;;;;;;;;5029664;28;20065;-65
2024/03/14 05:11:50;;;;;;;21.40;10.25;;;;;;;;;;5031273;28;20037;-66
2024/03/14 05:14:17;;;;;;;23.23;9.55;;;;;;;;;;5030672;28;20048;-66
2024/03/14 05:16:43;;;;;;;21.50;9.88;;;;;;;;;;5029478;28;20096;-65
2024/03/14 05:19:09;;;;;;;20.15;9.52;;;;;;;;;;5028538;28;20280;-67
2024/03/14 05:21:34;;;;;;;22.75;10.75;;;;;;;;;;5030672;28;20399;-67
2024/03/14 05:24:00;;;;;;;18.80;9.95;;;;;;;;;;5013196;28;20069;-66
2024/03/14 05:26:27;;;;;;;18.70;9.30;;;;;;;;;;5028963;28;20060;-64
2024/03/14 05:28:56;;;;;;;22.35;9.07;;;;;;;;;;4995681;28;20049;-65
2024/03/14 05:31:21;;;;;;;20.48;10.05;;;;;;;;;;5029933;28;20125;-67
2024/03/14 05:33:47;;;;;;;21.27;9.85;;;;;;;;;;5031680;28;20120;-67
2024/03/14 05:36:12;;;;;;;20.00;10.05;;;;;;;;;;5031954;28;20030;-67
2024/03/14 05:38:38;;;;;;;18.35;10.38;;;;;;;;;;5030708;28;20092;-67
2024/03/14 05:41:04;;;;;;;26.33;12.13;;;;;;;;;;4997828;28;20477;-66
2024/03/14 05:43:29;;;;;;;21.10;10.10;;;;;;;;;;5016784;28;20107;-67
2024/03/14 05:45:55;;;;;;;22.30;10.40;;;;;;;;;;5032899;28;20053;-65
2024/03/14 05:48:23;;;;;;;22.20;10.07;;;;;;;;;;5034471;28;20056;-65
2024/03/14 05:50:48;;;;;;;21.48;9.95;;;;;;;;;;5033014;28;20036;-63
2024/03/14 05:53:15;;;;;;;17.73;9.90;;;;;;;;;;5032766;28;20034;-63
2024/03/14 05:55:41;;;;;;;19.45;10.23;;;;;;;;;;5032392;28;20411;-65
2024/03/14 05:58:06;;;;;;;18.83;10.18;;;;;;;;;;5031725;28;20091;-63
2024/03/14 06:00:32;;;;;;;22.48;10.90;;;;;;;;;;5031498;28;20049;-63
2024/03/14 06:02:57;;;;;;;24.83;10.25;;;;;;;;;;5031547;28;20052;-64
2024/03/14 06:05:23;;;;;;;20.17;11.35;;;;;;;;;;5031900;28;20045;-66
2024/03/14 06:07:50;;;;;;;20.40;10.25;;;;;;;;;;5032499;28;20458;-66
2024/03/14 06:10:16;;;;;;;20.40;11.00;;;;;;;;;;5033295;28;20056;-63
2024/03/14 06:12:45;;;;;;;17.10;10.02;;;;;;;;;;5033391;28;20041;-65
2024/03/14 06:15:14;;;;;;;22.05;11.50;;;;;;;;;;5031383;28;20029;-62
2024/03/14 06:17:41;;;;;;;20.40;10.20;;;;;;;;;;5030617;28;20041;-66
2024/03/14 06:20:11;;;;;;;20.67;10.50;;;;;;;;;;5033064;28;20164;-67
2024/03/14 06:22:39;;;;;;;;;;;;;;;;;;5033555;28;20396;-65
2024/03/14 06:25:07;;;;;;;21.35;9.88;;;;;;;;;;5031868;28;20419;-67
2024/03/14 06:27:39;;;;;;;18.38;10.45;;;;;;;;;;5033297;28;20038;-65
2024/03/14 06:30:09;;;;;;;20.45;11.05;;;;;;;;;;5033589;28;20471;-67
2024/03/14 06:32:36;;;;;;;23.02;10.02;;;;;;;;;;5032095;28;20132;-65
2024/03/14 06:35:06;;;;;;;22.23;10.57;;;;;;;;;;5032942;28;20076;-66
2024/03/14 06:37:33;;;;;;;23.60;9.57;;;;;;;;;;5031478;28;20406;-68
2024/03/14 06:39:59;;;;;;;22.45;11.15;;;;;;;;;;5015240;28;20061;-66
2024/03/14 06:42:25;;;;;;;21.80;9.82;;;;;;;;;;5031343;28;20041;-67
2024/03/14 06:44:52;;;;;;;20.38;10.02;;;;;;;;;;5033022;28;20606;-65
2024/03/14 06:47:20;;;;;;;20.70;10.15;;;;;;;;;;5064901;28;20427;-68
2024/03/14 06:49:46;;;;;;;23.20;10.15;;;;;;;;;;5031567;28;20455;-66
2024/03/14 06:52:14;;;;;;;25.00;10.70;;;;;;;;;;5033278;28;20065;-68
2024/03/14 06:54:39;;;;;;;22.73;10.95;;;;;;;;;;5032692;28;20045;-64
2024/03/14 06:57:09;;;;;;;24.77;10.73;;;;;;;;;;5032979;28;20033;-64
2024/03/14 06:59:36;;;;;;;21.42;10.75;;;;;;;;;;5031201;28;20049;-66
2024/03/14 07:02:03;;;;;;;21.42;10.15;;;;;;;;;;5032885;28;20050;-64
2024/03/14 07:04:33;;;;;;;20.35;9.93;;;;;;;;;;5030951;28;20060;-65
2024/03/14 07:06:59;;;;;;;22.95;10.63;;;;;;;;;;5031343;28;20051;-64
2024/03/14 07:09:27;;;;;;;22.98;11.00;;;;;;;;;;5032232;28;20433;-65
2024/03/14 07:11:53;;;;;;;22.85;11.23;;;;;;;;;;5047885;28;20041;-64
2024/03/14 07:14:19;;;;;;;18.30;10.60;;;;;;;;;;5032345;28;20033;-64
2024/03/14 07:16:45;;;;;;;23.10;10.02;;;;;;;;;;5031688;28;20053;-64
2024/03/14 07:19:11;;;;;;;21.23;9.98;;;;;;;;;;5031678;28;20451;-64
2024/03/14 07:21:38;;;;;;;23.42;11.05;;;;;;;;;;5031225;28;20095;-66
2024/03/14 07:24:04;;;;;;;19.80;10.45;;;;;;;;;;5014283;28;20051;-66
2024/03/14 07:26:35;;;;;;;20.45;10.40;;;;;;;;;;5032261;28;20041;-65
2024/03/14 07:29:03;;;;;;;20.42;11.00;;;;;;;;;;5063688;28;20560;-64
2024/03/14 07:31:29;;;;;;;25.55;11.50;;;;;;;;;;5032313;28;20041;-64
2024/03/14 07:33:55;;;;;;;20.23;10.43;;;;;;;;;;5032109;28;20411;-64
2024/03/14 07:36:23;;;;;;;22.88;10.50;;;;;;;;;;5031890;28;20507;-65
2024/03/14 07:38:49;;;;;;;22.13;11.25;;;;;;;;;;5030767;28;20144;-63
2024/03/14 07:41:21;;;;;;;18.85;10.40;;;;;;;;;;5031784;28;20191;-64
2024/03/14 07:43:48;;;;;;;17.73;10.88;;;;;;;;;;5030704;28;20526;-64
2024/03/14 07:46:13;;;;;;;20.73;10.88;;;;;;;;;;5031499;28;20410;-64
2024/03/14 07:48:41;;;;;;;21.35;11.30;;;;;;;;;;5032092;28;20040;-62
2024/03/14 07:51:09;;;;;;;24.05;11.07;;;;;;;;;;5030050;28;20412;-65
2024/03/14 07:53:35;;;;;;;23.70;10.88;;;;;;;;;;5031665;28;20041;-62
2024/03/14 07:56:00;;;;;;;19.35;10.90;;;;;;;;;;5031065;28;20407;-67
2024/03/14 07:58:26;;;;;;;21.90;11.65;;;;;;;;;;5031053;28;20072;-64
2024/03/14 08:00:53;;;;;;;19.00;10.70;;;;;;;;;;5027898;28;20045;-66
2024/03/14 08:03:19;;;;;;;19.55;11.02;;;;;;;;;;5029679;28;20037;-65
2024/03/14 08:05:50;;;;;;;19.80;10.85;;;;;;;;;;5025333;28;20384;-64
2024/03/14 08:08:17;;;;;;;22.83;10.68;;;;;;;;;;5030974;28;20033;-64
2024/03/14 08:10:45;;;;;;;21.10;11.27;;;;;;;;;;5028192;28;20091;-63
2024/03/14 08:13:17;;;;;;;24.45;10.88;;;;;;;;;;5031555;28;20099;-64
2024/03/14 08:15:59;;;;;;;21.73;10.55;;;;;;;;;;5031366;28;20076;-63
2024/03/14 08:18:25;;;;;;;20.13;10.32;;;;;;;;;;5031611;28;20120;-63
2024/03/14 08:20:55;;;;;;;23.55;11.38;;;;;;;;;;5031122;28;20476;-64
2024/03/14 08:23:21;;;;;;;;;;;;;;;;;;5031893;28;20037;-64
2024/03/14 08:25:47;;;;;;;22.50;9.40;;;;;;;;;;5029860;28;19919;-63
2024/03/14 08:28:13;;;;;;;25.05;10.60;;;;;;;;;;5031455;28;20037;-64
2024/03/14 08:30:39;;;;;;;22.98;10.52;;;;;;;;;;5029730;28;20079;-64
2024/03/14 08:33:07;;;;;;;23.60;10.25;;;;;;;;;;5031309;28;20050;-65
2024/03/14 08:35:36;;;;;;;21.33;10.57;;;;;;;;;;5030793;28;20036;-63
2024/03/14 08:38:04;;;;;;;22.33;10.77;;;;;;;;;;5029999;28;20033;-63
2024/03/14 08:40:30;;;;;;;20.17;10.25;;;;;;;;;;5029597;28;20511;-64
2024/03/14 08:42:55;;;;;;;19.73;9.90;;;;;;;;;;5029803;28;20040;-65
2024/03/14 08:45:21;;;;;;;19.25;9.77;;;;;;;;;;5030012;28;20415;-65
2024/03/14 08:47:47;;;;;;;22.40;9.70;;;;;;;;;;5031172;28;20113;-64
2024/03/14 08:50:15;;;;;;;21.83;10.93;;;;;;;;;;5031274;28;20041;-63
2024/03/14 08:52:41;;;;;;;19.52;9.68;;;;;;;;;;5029540;28;20034;-64
2024/03/14 08:55:23;;;;;;;20.42;9.85;;;;;;;;;;5029289;28;20521;-63
2024/03/14 08:57:52;;;;;;;21.40;9.55;;;;;;;;;;5029672;28;20115;-64
2024/03/14 09:00:20;;;;;;;25.13;9.85;;;;;;;;;;5030760;28;20400;-64
2024/03/14 09:02:46;;;;;;;19.73;9.45;;;;;;;;;;5030718;28;20545;-64
2024/03/14 09:05:14;;;;;;;16.55;8.15;;;;;;;;;;5030778;28;20041;-64
2024/03/14 09:07:45;;;;;;;18.92;10.18;;;;;;;;;;5033484;28;20056;-66
2024/03/14 09:10:23;;;;;;;18.35;9.30;;;;;;;;;;5032775;28;20064;-66
2024/03/14 09:12:49;;;;;;;16.30;8.95;;;;;;;;;;5032801;28;20041;-69
2024/03/14 09:15:15;;;;;;;27.50;9.50;;;;;;;;;;5031848;28;20453;-69
2024/03/14 09:17:41;;;;;;;21.52;9.38;;;;;;;;;;5032666;28;20543;-69
2024/03/14 09:20:08;;;;;;;16.73;8.75;;;;;;;;;;5035951;28;20061;-68
2024/03/14 09:22:35;;;;;;;16.42;8.65;;;;;;;;;;5032271;28;20045;-71
2024/03/14 09:25:01;;;;;;;18.95;8.55;;;;;;;;;;5033083;28;20037;-70
2024/03/14 09:27:32;;;;;;;15.18;9.38;;;;;;;;;;5034369;28;20040;-68
2024/03/14 09:29:59;;;;;;;18.13;9.38;;;;;;;;;;5033246;28;20482;-68
2024/03/14 09:32:25;;;;;;;19.08;8.85;;;;;;;;;;5034686;28;20446;-68
2024/03/14 09:34:51;;;;;;;17.45;9.25;;;;;;;;;;5034250;28;20099;-67
2024/03/14 09:37:17;;;;;;;16.83;8.32;;;;;;;;;;5033360;28;20062;-69
2024/03/14 09:39:42;;;;;;;15.77;9.00;;;;;;;;;;5033715;28;20065;-68
2024/03/14 09:42:08;;;;;;;18.05;8.98;;;;;;;;;;5032942;28;20128;-68
2024/03/14 09:44:35;;;;;;;21.98;9.43;;;;;;;;;;5034103;28;20092;-69
2024/03/14 09:47:16;;;;;;;18.40;8.70;;;;;;;;;;5033083;28;20496;-68
2024/03/14 09:49:43;;;;;;;16.35;8.25;;;;;;;;;;5016134;28;20088;-70
2024/03/14 09:52:08;;;;;;;14.82;7.88;;;;;;;;;;5034441;28;20488;-68
2024/03/14 09:54:34;;;;;;;17.13;8.40;;;;;;;;;;5032223;28;20136;-67
2024/03/14 09:57:01;;;;;;;15.25;7.97;;;;;;;;;;5032808;28;20029;-67
2024/03/14 09:59:27;;;;;;;14.32;7.32;;;;;;;;;;5032335;28;20042;-64
2024/03/14 10:01:53;;;;;;;13.30;7.28;;;;;;;;;;5033698;28;20045;-68
2024/03/14 10:04:20;;;;;;;14.50;7.05;;;;;;;;;;5039807;28;20043;-68
2024/03/14 10:06:50;;;;;;;13.73;7.18;;;;;;;;;;5035595;28;20033;-64
2024/03/14 10:09:26;;;;;;;17.10;7.18;;;;;;;;;;5018116;28;20128;-67
2024/03/14 10:11:58;;;;;;;14.90;7.35;;;;;;;;;;5032688;28;20590;-68
2024/03/14 10:14:24;;;;;;;13.93;7.00;;;;;;;;;;5032325;28;20038;-68
2024/03/14 10:16:50;;;;;;;11.68;6.45;;;;;;;;;;5032489;28;20385;-66
2024/03/14 10:19:16;;;;;;;16.02;6.68;;;;;;;;;;5033238;28;20034;-69
2024/03/14 10:21:43;;;;;;;13.20;6.65;;;;;;;;;;5016155;28;20041;-69
2024/03/14 10:24:16;;;;;;;12.88;6.25;;;;;;;;;;5032458;28;20112;-65
2024/03/14 10:26:44;;;;;;;13.50;6.90;;;;;;;;;;5015941;28;20037;-66
2024/03/14 10:29:13;;;;;;;12.55;6.43;;;;;;;;;;5032294;28;20036;-66
2024/03/14 10:31:45;;;;;;;13.07;6.90;;;;;;;;;;5032032;28;20045;-65
2024/03/14 10:34:13;;;;;;;12.52;6.95;;;;;;;;;;5033394;28;20033;-68
2024/03/14 10:36:41;;;;;;;14.75;7.38;;;;;;;;;;5031351;28;20159;-64
2024/03/14 10:39:13;;;;;;;16.20;6.80;;;;;;;;;;5031390;28;20140;-64
2024/03/14 10:41:43;;;;;;;10.85;6.05;;;;;;;;;;5031924;28;20526;-64
2024/03/14 10:44:14;;;;;;;17.92;6.93;;;;;;;;;;5031962;28;20033;-63
2024/03/14 10:46:40;;;;;;;;;;;;;;;;;;5032281;28;20411;-66
2024/03/14 10:49:05;;;;;;;11.70;6.95;;;;;;;;;;5033022;28;19913;-64
2024/03/14 10:51:31;;;;;;;10.93;6.25;;;;;;;;;;5032808;28;20187;-64
2024/03/14 10:53:58;;;;;;;10.73;6.47;;;;;;;;;;5033084;28;20041;-63
2024/03/14 10:56:25;;;;;;;12.85;6.40;;;;;;;;;;5033008;28;20041;-64
2024/03/14 10:58:54;;;;;;;22.95;6.55;;;;;;;;;;5032487;28;20038;-64
2024/03/14 11:01:21;;;;;;;15.00;7.07;;;;;;;;;;5064829;28;20033;-64
2024/03/14 11:03:48;;;;;;;12.00;6.53;;;;;;;;;;5031477;28;20061;-64
2024/03/14 11:06:15;;;;;;;12.88;7.25;;;;;;;;;;5031389;28;20037;-64
2024/03/14 11:08:43;;;;;;;13.70;6.50;;;;;;;;;;5032681;28;20056;-64
2024/03/14 11:11:12;;;;;;;16.17;6.82;;;;;;;;;;5032315;28;20025;-65
2024/03/14 11:13:44;;;;;;;11.05;6.93;;;;;;;;;;5031258;28;20037;-62
2024/03/14 11:16:13;;;;;;;11.88;6.50;;;;;;;;;;5032411;28;20412;-64
2024/03/14 11:18:42;;;;;;;10.25;5.97;;;;;;;;;;5032363;28;20065;-63
2024/03/14 11:21:09;;;;;;;13.60;5.78;;;;;;;;;;5032368;28;20048;-63
2024/03/14 11:23:36;;;;;;;16.08;6.57;;;;;;;;;;5032104;28;20051;-65
2024/03/14 11:26:05;;;;;;;10.88;6.38;;;;;;;;;;5031140;28;20092;-64
2024/03/14 11:28:31;;;;;;;9.23;6.45;;;;;;;;;;5031716;28;20041;-64
2024/03/14 11:30:58;;;;;;;15.23;6.68;;;;;;;;;;5030932;28;20029;-65
2024/03/14 11:33:27;;;;;;;13.45;6.72;;;;;;;;;;5031801;28;20041;-64
2024/03/14 11:35:59;;;;;;;13.48;6.40;;;;;;;;;;5032375;28;20079;-64
2024/03/14 11:38:28;;;;;;;11.50;5.25;;;;;;;;;;5031483;28;20487;-62
2024/03/14 11:40:55;;;;;;;7.90;5.15;;;;;;;;;;5032369;28;20041;-60
2024/03/14 11:43:22;;;;;;;9.85;5.53;;;;;;;;;;5032034;28;20033;-63
2024/03/14 11:45:58;;;;;;;11.57;6.07;;;;;;;;;;4994603;28;20411;-63
2024/03/14 11:48:24;;;;;;;10.65;6.10;;;;;;;;;;5024336;28;20045;-64
2024/03/14 11:50:53;;;;;;;8.57;5.28;;;;;;;;;;5030909;28;20029;-63
2024/03/14 11:53:21;;;;;;;10.18;5.55;;;;;;;;;;5029505;28;20106;-63
2024/03/14 11:55:48;;;;;;;11.32;6.20;;;;;;;;;;5014160;28;20506;-64
2024/03/14 11:58:18;;;;;;;12.02;5.55;;;;;;;;;;5029997;28;20453;-63
2024/03/14 12:00:52;;;;;;;12.98;6.05;;;;;;;;;;5031388;28;20049;-64
2024/03/14 12:03:25;;;;;;;9.80;5.68;;;;;;;;;;5028834;28;20055;-64
2024/03/14 12:05:52;;;;;;;9.70;5.50;;;;;;;;;;5030653;28;20040;-64
2024/03/14 12:08:22;;;;;;;9.25;5.15;;;;;;;;;;5031232;28;20075;-64
2024/03/14 12:10:54;;;;;;;11.98;5.75;;;;;;;;;;5011578;28;20038;-66
2024/03/14 12:13:26;;;;;;;11.45;5.53;;;;;;;;;;5016247;28;20472;-64
2024/03/14 12:15:58;;;;;;;11.55;6.03;;;;;;;;;;5031504;28;20049;-65
2024/03/14 12:18:24;;;;;;;10.90;6.40;;;;;;;;;;5030990;28;20041;-64
2024/03/14 12:20:49;;;;;;;9.85;5.38;;;;;;;;;;5031062;28;20060;-64
2024/03/14 12:23:16;;;;;;;9.93;5.30;;;;;;;;;;5029947;28;20124;-63
2024/03/14 12:25:46;;;;;;;10.90;5.60;;;;;;;;;;5031268;28;20125;-66
2024/03/14 12:28:14;;;;;;;9.35;5.55;;;;;;;;;;5031349;28;20071;-65
2024/03/14 12:30:42;;;;;;;12.75;6.10;;;;;;;;;;5030837;28;20079;-66
2024/03/14 12:33:09;;;;;;;8.30;4.97;;;;;;;;;;5031258;28;20041;-65
2024/03/14 12:35:34;;;;;;;10.85;5.13;;;;;;;;;;5030700;28;20408;-65
2024/03/14 12:38:01;;;;;;;10.00;5.43;;;;;;;;;;5031429;28;20036;-65
2024/03/14 12:40:29;;;;;;;11.30;4.65;;;;;;;;;;5029165;28;20066;-67
2024/03/14 12:42:56;;;;;;;8.60;5.10;;;;;;;;;;5031331;28;20044;-67
2024/03/14 12:45:23;;;;;;;10.50;5.25;;;;;;;;;;5030665;28;20053;-66
2024/03/14 12:47:52;;;;;;;13.65;5.38;;;;;;;;;;5029941;28;20723;-65
2024/03/14 12:50:19;;;;;;;8.23;4.95;;;;;;;;;;5030751;28;20041;-66
2024/03/14 12:52:45;;;;;;;7.95;4.85;;;;;;;;;;5029941;28;20515;-64
2024/03/14 12:55:17;;;;;;;10.57;4.47;;;;;;;;;;5031056;28;20033;-64
2024/03/14 12:57:44;;;;;;;9.77;5.15;;;;;;;;;;5030169;28;20037;-66
2024/03/14 13:00:17;;;;;;;10.75;4.70;;;;;;;;;;5030850;28;20509;-65
2024/03/14 13:02:49;;;;;;;8.50;4.47;;;;;;;;;;5030737;28;20045;-66
2024/03/14 13:05:24;;;;;;;10.25;4.80;;;;;;;;;;5029413;28;20187;-66
2024/03/14 13:08:06;;;;;;;10.30;5.35;;;;;;;;;;5031305;28;20045;-66
2024/03/14 13:10:35;;;;;;;11.20;6.97;;;;;;;;;;5030696;28;20045;-66
2024/03/14 13:13:06;;;;;;;9.63;5.05;;;;;;;;;;5030414;28;20032;-65
2024/03/14 13:15:33;;;;;;;10.57;5.53;;;;;;;;;;5023935;28;20088;-63
2024/03/14 13:17:59;;;;;;;9.57;4.55;;;;;;;;;;5030716;28;20036;-65
2024/03/14 13:20:27;;;;;;;11.75;4.97;;;;;;;;;;5029995;28;20037;-65
2024/03/14 13:22:53;;;;;;;13.68;4.93;;;;;;;;;;5029253;28;20044;-64
2024/03/14 13:25:19;;;;;;;9.55;5.55;;;;;;;;;;5030610;28;20033;-64
2024/03/14 13:27:45;;;;;;;11.23;5.43;;;;;;;;;;5030711;28;20033;-63
2024/03/14 13:30:12;;;;;;;13.52;5.75;;;;;;;;;;5030601;28;20033;-63
2024/03/14 13:32:38;;;;;;;9.35;5.13;;;;;;;;;;5030669;28;20096;-62
2024/03/14 13:35:05;;;;;;;11.88;5.82;;;;;;;;;;5030503;28;20490;-63
2024/03/14 13:37:32;;;;;;;11.52;5.22;;;;;;;;;;5030220;28;20120;-62
2024/03/14 13:39:57;;;;;;;12.10;5.80;;;;;;;;;;5029052;28;20136;-63
2024/03/14 13:42:24;;;;;;;12.10;5.50;;;;;;;;;;5030216;28;20123;-64
2024/03/14 13:44:49;;;;;;;11.05;5.75;;;;;;;;;;5026423;28;20026;-65
2024/03/14 13:47:20;;;;;;;11.35;5.45;;;;;;;;;;5027512;28;20475;-64
2024/03/14 13:49:45;;;;;;;11.05;5.53;;;;;;;;;;5029393;28;20033;-66
2024/03/14 13:52:14;;;;;;;18.98;5.57;;;;;;;;;;5030544;28;20043;-66
2024/03/14 13:54:40;;;;;;;10.13;5.03;;;;;;;;;;5027747;28;20427;-65
2024/03/14 13:57:08;;;;;;;14.68;7.03;;;;;;;;;;5027764;28;20033;-67
2024/03/14 13:59:36;;;;;;;11.68;5.38;;;;;;;;;;5022888;28;20116;-66
2024/03/14 14:02:03;;;;;;;10.55;4.65;;;;;;;;;;5031882;28;20049;-65
2024/03/14 14:04:30;;;;;;;9.77;5.15;;;;;;;;;;5029085;28;20037;-65
2024/03/14 14:06:57;;;;;;;8.75;5.15;;;;;;;;;;5026115;28;20038;-67
2024/03/14 14:09:24;;;;;;;9.48;4.38;;;;;;;;;;5021912;28;20163;-63
2024/03/14 14:11:52;;;;;;;11.75;4.68;;;;;;;;;;5015564;28;20045;-64
2024/03/14 14:14:18;;;;;;;8.23;4.22;;;;;;;;;;5031626;28;20041;-66
2024/03/14 14:16:44;;;;;;;11.60;5.28;;;;;;;;;;5023976;28;20026;-68
2024/03/14 14:19:10;;;;;;;11.02;4.53;;;;;;;;;;4995443;28;20512;-60
2024/03/14 14:21:38;;;;;;;15.23;5.75;;;;;;;;;;5022357;28;20042;-64
2024/03/14 14:24:04;;;;;;;14.57;5.70;;;;;;;;;;5039703;28;20495;-63
2024/03/14 14:26:30;;;;;;;13.68;6.38;;;;;;;;;;5015416;28;20037;-64
2024/03/14 14:28:57;;;;;;;13.30;6.18;;;;;;;;;;5032828;28;20045;-65